Flight Track Log - Related Links

Times and Time Zones

All times are in EDT time to prevent confusion due to time zone crossing. See the DAL933 flight status page for this flight to view local times or setup timezone preferences in your user account.

Time Position Orientation Groundspeed Altitude Reporting Facility
EDT Latitude Longitude Course Direction KTS MPH feet Rate Location/Type
Tue 01:47:39 AM 33.9333 -118.4667 172° South 194 223 1,700  Level Southern California TRACON
Tue 01:52:16 AM 33.6611 -118.4222 99° East 251 289 10,900 1,958 Climbing Los Angeles Center
Tue 01:53:16 AM 33.6428 -118.2819 89° East 357 411 12,700 1,850 Climbing Los Angeles Center
Tue 01:54:16 AM 33.6450 -118.1497 90° East 370 426 14,600 1,600 Climbing Los Angeles Center
Tue 01:55:16 AM 33.6450 -118.0300 90° East 384 442 15,900 1,300 Climbing Los Angeles Center
Tue 01:56:16 AM 33.6450 -117.8828 90° East 408 470 17,200 1,450 Climbing Los Angeles Center
Tue 01:57:16 AM 33.6450 -117.7381 90° East 428 493 18,800 1,550 Climbing Los Angeles Center
Tue 01:58:16 AM 33.6447 -117.5858 90° East 444 511 20,300 1,400 Climbing Los Angeles Center
Tue 01:59:16 AM 33.6444 -117.4336 90° East 449 517 21,600 1,250 Climbing Los Angeles Center
Tue 02:00:16 AM 33.6439 -117.2764 92° East 461 531 22,800 1,100 Climbing Los Angeles Center
Tue 02:01:16 AM 33.6392 -117.1042 89° East 461 531 23,800 1,000 Climbing Los Angeles Center
Tue 02:02:16 AM 33.6403 -116.9394 91° East 473 544 24,800 900 Climbing Los Angeles Center
Tue 02:03:16 AM 33.6372 -116.7750 91° East 484 557 25,600 700 Climbing Los Angeles Center
Tue 02:04:16 AM 33.6358 -116.6028 91° East 494 568 26,200 650 Climbing Los Angeles Center
Tue 02:05:16 AM 33.6344 -116.4306 91° East 506 582 26,900 900 Climbing Los Angeles Center
Tue 02:06:16 AM 33.6306 -116.2558 91° East 517 595 28,000 1,050 Climbing Los Angeles Center
Tue 02:07:16 AM 33.6286 -116.0814 92° East 517 595 29,000 950 Climbing Los Angeles Center
Tue 02:08:16 AM 33.6242 -115.9092 92° East 512 589 29,900 800 Climbing Los Angeles Center
Tue 02:09:16 AM 33.6194 -115.7369 91° East 512 589 30,600 700 Climbing Los Angeles Center
Tue 02:10:16 AM 33.6169 -115.5625 92° East 518 596 31,300 750 Climbing Los Angeles Center
Tue 02:11:16 AM 33.6117 -115.3853 92° East 518 596 32,100 750 Climbing Los Angeles Center
Tue 02:12:16 AM 33.6064 -115.2108 91° East 518 596 32,800 700 Climbing Los Angeles Center
Tue 02:13:16 AM 33.6028 -115.0339 91° East 518 596 33,500 650 Climbing Los Angeles Center
Tue 02:14:16 AM 33.5992 -114.8619 93° East 512 589 34,100 700 Climbing Los Angeles Center
Tue 02:15:16 AM 33.5908 -114.6900 95° East 512 589 34,900 292 Climbing Los Angeles Center
Tue 02:17:21 AM 33.5656 -114.3408 94° East 512 589 35,000 32 Climbing Albuquerque Center
Tue 02:18:21 AM 33.5561 -114.1781 94° East 523 602 35,000  Level Albuquerque Center
Tue 02:19:21 AM 33.5450 -114.0053 96° East 523 602 35,000  Level Albuquerque Center
Tue 02:20:21 AM 33.5294 -113.8297 94° East 523 602 35,000  Level Albuquerque Center
Tue 02:21:21 AM 33.5181 -113.6544 95° East 523 602 35,000  Level Albuquerque Center
Tue 02:22:21 AM 33.5042 -113.4792 95° East 523 602 35,000  Level Albuquerque Center
Tue 02:23:21 AM 33.4908 -113.2889 96° East 523 602 35,000  Level Albuquerque Center
Tue 02:24:21 AM 33.4764 -113.1139 95° East 523 602 35,000  Level Albuquerque Center
Tue 02:25:21 AM 33.4639 -112.9411 97° East 523 602 35,000  Level Albuquerque Center
Tue 02:26:21 AM 33.4467 -112.7683 97° East 523 602 35,000  Level Albuquerque Center
Tue 02:27:21 AM 33.4275 -112.5881 98° East 523 602 35,000  Level Albuquerque Center
Tue 02:28:21 AM 33.4078 -112.4178 97° East 530 610 35,000  Level Albuquerque Center
Tue 02:29:21 AM 33.3900 -112.2425 98° East 525 604 35,000  Level Albuquerque Center
Tue 02:30:21 AM 33.3697 -112.0697 97° East 525 604 35,000  Level Albuquerque Center
Tue 02:31:21 AM 33.3514 -111.8947 97° East 525 604 35,000  Level Albuquerque Center
Tue 02:32:21 AM 33.3328 -111.7222 97° East 525 604 35,000  Level Albuquerque Center
Tue 02:33:21 AM 33.3142 -111.5475 98° East 525 604 35,000  Level Albuquerque Center
Tue 02:34:21 AM 33.2928 -111.3750 98° East 525 604 35,000  Level Albuquerque Center
Tue 02:35:21 AM 33.2750 -111.2203 98° East 525 604 35,000  Level Albuquerque Center
Tue 02:36:21 AM 33.2556 -111.0456 98° East 525 604 35,000  Level Albuquerque Center
Tue 02:37:21 AM 33.2336 -110.8708 98° East 525 604 35,000  Level Albuquerque Center
Tue 02:38:21 AM 33.2136 -110.6989 99° East 525 604 35,000  Level Albuquerque Center
Tue 02:39:21 AM 33.1875 -110.5092 98° East 525 604 35,000  Level Albuquerque Center
Tue 02:40:21 AM 33.1669 -110.3300 98° East 530 610 35,000  Level Albuquerque Center
Tue 02:41:21 AM 33.1461 -110.1581 99° East 530 610 35,000  Level Albuquerque Center
Tue 02:42:21 AM 33.1244 -110.0011 98° East 525 604 35,000  Level Albuquerque Center
Tue 02:43:21 AM 33.1031 -109.8294 99° East 525 604 35,000  Level Albuquerque Center
Tue 02:44:21 AM 33.0794 -109.6553 98° East 525 604 35,000  Level Albuquerque Center
Tue 02:45:21 AM 33.0578 -109.4814 99° East 530 610 35,000  Level Albuquerque Center
Tue 02:46:21 AM 33.0356 -109.3075 100° East 530 610 35,000  Level Albuquerque Center
Tue 02:47:21 AM 33.0111 -109.1386 101° East 524 603 35,000  Level Albuquerque Center
Tue 02:48:21 AM 32.9806 -108.9450 98° East 538 619 35,000  Level Albuquerque Center
Tue 02:49:21 AM 32.9597 -108.7639 99° East 544 626 35,000  Level Albuquerque Center
Tue 02:50:21 AM 32.9367 -108.5928 99° East 539 620 35,000  Level Albuquerque Center
Tue 02:51:21 AM 32.9133 -108.4194 100° East 534 615 35,000  Level Albuquerque Center
Tue 02:52:21 AM 32.8875 -108.2461 101° East 534 615 35,000  Level Albuquerque Center
Tue 02:53:21 AM 32.8614 -108.0803 99° East 523 602 35,000  Level Albuquerque Center
Tue 02:54:21 AM 32.8375 -107.9094 100° East 523 602 35,000  Level Albuquerque Center
Tue 02:55:21 AM 32.8108 -107.7364 100° East 523 602 35,000  Level Albuquerque Center
Tue 02:56:21 AM 32.7864 -107.5636 100° East 523 602 35,000 -50 Level Albuquerque Center
Tue 02:57:21 AM 32.7614 -107.3908 100° East 523 602 34,900  Descending Albuquerque Center
Tue 02:58:21 AM 32.7364 -107.2181 99° East 528 608 35,000 50 Climbing Albuquerque Center
Tue 02:59:21 AM 32.7131 -107.0453 101° East 528 608 35,000  Level Albuquerque Center
Tue 03:00:21 AM 32.6875 -106.8925 101° East 528 608 35,000  Level Albuquerque Center
Tue 03:01:21 AM 32.6597 -106.7153 100° East 528 608 35,000  Level Albuquerque Center
Tue 03:02:21 AM 32.6336 -106.5453 100° East 528 608 35,000 -50 Level Albuquerque Center
Tue 03:03:21 AM 32.6072 -106.3756 100° East 528 608 34,900  Descending Albuquerque Center
Tue 03:04:21 AM 32.5808 -106.2033 102° East 528 608 35,000 50 Climbing Albuquerque Center
Tue 03:05:21 AM 32.5519 -106.0364 101° East 523 602 35,000  Level Albuquerque Center
Tue 03:06:21 AM 32.5247 -105.8644 101° East 523 602 35,000  Level Albuquerque Center
Tue 03:07:21 AM 32.4975 -105.6950 102° East 528 608 35,000  Level Albuquerque Center
Tue 03:08:21 AM 32.4681 -105.5258 100° East 523 602 35,000 -50 Level Albuquerque Center
Tue 03:09:21 AM 32.4422 -105.3544 101° East 523 602 34,900 -50 Descending Albuquerque Center
Tue 03:10:21 AM 32.4144 -105.1878 101° East 524 603 34,900  Level Albuquerque Center
Tue 03:11:21 AM 32.3861 -105.0189 101° East 524 603 34,900 50 Level Albuquerque Center
Tue 03:12:21 AM 32.3578 -104.8528 102° East 524 603 35,000 50 Climbing Albuquerque Center
Tue 03:13:21 AM 32.3269 -104.6817 101° East 524 603 35,000  Level Albuquerque Center
Tue 03:14:21 AM 32.2981 -104.5131 101° East 524 603 35,000 -50 Level Albuquerque Center
Tue 03:15:21 AM 32.2689 -104.3422 102° East 524 603 34,900  Descending Albuquerque Center
Tue 03:17:27 AM 32.2061 -103.9878 101° East 528 608 35,000 32 Climbing Fort Worth Center
Tue 03:18:27 AM 32.1739 -103.8014 103° East 528 608 35,000  Level Fort Worth Center
Tue 03:19:27 AM 32.1408 -103.6297 102° East 528 608 35,000  Level Fort Worth Center
Tue 03:20:27 AM 32.1114 -103.4636 104° East 528 608 35,000  Level Fort Worth Center
Tue 03:21:27 AM 32.0756 -103.2944 102° East 528 608 35,000  Level Fort Worth Center
Tue 03:22:27 AM 32.0456 -103.1283 103° East 528 608 35,000  Level Fort Worth Center
Tue 03:23:27 AM 32.0136 -102.9597 100° East 528 608 35,000  Level Fort Worth Center
Tue 03:24:27 AM 31.9875 -102.7942 103° East 521 600 35,000 -50 Level Fort Worth Center
Tue 03:25:27 AM 31.9547 -102.6258 103° East 521 600 34,900 -50 Descending Fort Worth Center
Tue 03:26:27 AM 31.9219 -102.4600 101° East 521 600 34,900 50 Level Fort Worth Center
Tue 03:27:27 AM 31.8967 -102.3094 103° East 515 593 35,000 50 Climbing Fort Worth Center
Tue 03:28:27 AM 31.8633 -102.1414 102° East 515 593 35,000  Level Fort Worth Center
Tue 03:29:27 AM 31.8319 -101.9733 104° East 520 598 35,000  Level Fort Worth Center
Tue 03:30:27 AM 31.7964 -101.8031 103° East 520 598 35,000  Level Fort Worth Center
Tue 03:32:38 AM 31.7219 -101.4403 103° East 527 606 35,000  Level Houston Center
Tue 03:33:38 AM 31.6881 -101.2747 103° East 523 602 35,000  Level Houston Center
Tue 03:34:38 AM 31.6553 -101.1106 104° East 520 598 35,000 -50 Level Houston Center
Tue 03:35:38 AM 31.6208 -100.9475 103° East 517 595 34,900 -50 Descending Houston Center
Tue 03:36:38 AM 31.5889 -100.7850 103° East 513 590 34,900 50 Level Houston Center
Tue 03:37:38 AM 31.5586 -100.6367 104° East 514 592 35,000 50 Climbing Houston Center
Tue 03:38:39 AM 31.5247 -100.4744 104° East 513 590 35,000  Level Houston Center
Tue 03:39:39 AM 31.4903 -100.3128 104° East 512 589 35,000  Level Houston Center
Tue 03:40:39 AM 31.4564 -100.1511 104° East 511 588 35,000  Level Houston Center
Tue 03:41:39 AM 31.4225 -99.9903 104° East 510 587 35,000  Level Houston Center
Tue 03:42:39 AM 31.3872 -99.8292 104° East 510 587 35,000  Level Houston Center
Tue 03:43:39 AM 31.3531 -99.6689 104° East 509 586 35,000  Level Houston Center
Tue 03:44:40 AM 31.3125 -99.4836 104° East 509 586 35,000  Level Houston Center
Tue 03:45:40 AM 31.2836 -99.3472 105° East 510 587 35,000  Level Houston Center
Tue 03:46:40 AM 31.2419 -99.1608 104° East 508 585 35,000  Level Houston Center
Tue 03:47:40 AM 31.2058 -98.9975 104° East 512 589 35,000  Level Houston Center
Tue 03:48:40 AM 31.1700 -98.8353 105° East 512 589 35,000  Level Houston Center
Tue 03:49:40 AM 31.1397 -98.6997 105° East 514 592 35,000  Level Houston Center
Tue 03:50:41 AM 31.1031 -98.5372 105° East 514 592 35,000  Level Houston Center
Tue 03:51:41 AM 31.0656 -98.3744 98° East 515 593 35,000  Level Houston Center
Tue 03:52:41 AM 31.0450 -98.2089 90° East 515 593 35,000  Level Houston Center
Tue 03:53:41 AM 31.0458 -98.0408 90° East 514 592 35,000  Level Houston Center
Tue 03:54:41 AM 31.0456 -97.8736 90° East 513 590 35,000  Level Houston Center
Tue 03:55:41 AM 31.0461 -97.7056 90° East 512 589 35,000 50 Level Houston Center
Tue 03:56:42 AM 31.0467 -97.5389 89° East 509 586 35,100  Climbing Houston Center
Tue 03:57:42 AM 31.0489 -97.3714 90° East 507 583 35,000 -50 Descending Houston Center
Tue 03:58:42 AM 31.0481 -97.1964 91° East 510 587 35,000  Level Houston Center
Tue 03:59:42 AM 31.0467 -97.0264 90° East 514 592 35,000  Level Houston Center
Tue 04:00:42 AM 31.0464 -96.8594 91° East 510 587 35,000  Level Houston Center
Tue 04:01:42 AM 31.0450 -96.7219 91° East 509 586 35,000  Level Houston Center
Tue 04:02:43 AM 31.0431 -96.5622 90° East 493 567 35,000  Level Houston Center
Tue 04:03:43 AM 31.0428 -96.4047 92° East 481 554 35,000 46 Level Houston Center
Tue 04:46:06 AM 30.6825 -89.8356 98° East 464 534 37,000 44 Climbing Houston Center
Tue 04:49:06 AM 30.6256 -89.3783 97° East 484 557 37,000  Level Houston Center
Tue 04:50:06 AM 30.6083 -89.2242 99° East 484 557 37,000  Level Houston Center
Tue 04:51:06 AM 30.5867 -89.0681 100° East 484 557 37,000  Level Houston Center
Tue 04:52:06 AM 30.5603 -88.8975 98° East 484 557 37,000  Level Houston Center
Tue 04:53:06 AM 30.5403 -88.7414 99° East 484 557 37,000  Level Houston Center
Tue 04:54:06 AM 30.5203 -88.5875 98° East 484 557 37,000  Level Houston Center
Tue 04:55:52 AM 30.4850 -88.3156 99° East 480 552 37,000  Level Jacksonville Center
Tue 04:56:52 AM 30.4644 -88.1603 99° East 480 552 37,000  Level Jacksonville Center
Tue 04:57:52 AM 30.4436 -88.0072 99° East 485 558 37,000  Level Jacksonville Center
Tue 04:58:52 AM 30.4225 -87.8519 98° East 485 558 37,000  Level Jacksonville Center
Tue 04:59:52 AM 30.4033 -87.6994 98° East 485 558 37,000  Level Jacksonville Center
Tue 05:00:52 AM 30.3839 -87.5467 99° East 485 558 37,000  Level Jacksonville Center
Tue 05:01:52 AM 30.3622 -87.3942 99° East 479 551 37,000  Level Jacksonville Center
Tue 05:02:52 AM 30.3406 -87.2414 99° East 479 551 37,000  Level Jacksonville Center
Tue 05:03:52 AM 30.3206 -87.0939 99° East 479 551 37,000  Level Jacksonville Center
Tue 05:04:52 AM 30.3036 -86.9728 100° East 474 545 37,000  Level Jacksonville Center
Tue 05:05:52 AM 30.2794 -86.8083 99° East 469 540 37,000  Level Jacksonville Center
Tue 05:06:52 AM 30.2589 -86.6558 100° East 469 540 37,000  Level Jacksonville Center
Tue 05:07:52 AM 30.2361 -86.5036 99° East 469 540 37,000  Level Jacksonville Center
Tue 05:08:52 AM 30.2153 -86.3561 100° East 469 540 37,000  Level Jacksonville Center
Tue 05:09:52 AM 30.1922 -86.2064 101° East 469 540 37,000  Level Jacksonville Center
Tue 05:10:52 AM 30.1667 -86.0542 100° East 469 540 37,000  Level Jacksonville Center
Tue 05:11:52 AM 30.1453 -85.9069 100° East 469 540 37,000  Level Jacksonville Center
Tue 05:12:52 AM 30.1217 -85.7597 101° East 469 540 37,000  Level Jacksonville Center
Tue 05:13:52 AM 30.0919 -85.5861 100° East 485 558 37,000  Level Jacksonville Center
Tue 05:14:52 AM 30.0700 -85.4367 100° East 485 558 37,000  Level Jacksonville Center
Tue 05:15:52 AM 30.0478 -85.2850 100° East 485 558 37,000  Level Jacksonville Center
Tue 05:16:52 AM 30.0256 -85.1381 102° East 480 552 37,000  Level Jacksonville Center
Tue 05:17:52 AM 29.9989 -84.9889 100° East 475 547 37,000  Level Jacksonville Center
Tue 05:18:52 AM 29.9761 -84.8397 100° East 469 540 37,000 -50 Level Jacksonville Center
Tue 05:19:52 AM 29.9533 -84.6906 100° East 469 540 36,900  Descending Jacksonville Center
Tue 05:20:52 AM 29.9303 -84.5414 102° East 469 540 37,000  Climbing Jacksonville Center
Tue 05:21:52 AM 29.9047 -84.3972 99° East 469 540 36,900  Descending Jacksonville Center
Tue 05:22:52 AM 29.8836 -84.2483 104° East 469 540 37,000 50 Climbing Jacksonville Center
Tue 05:23:52 AM 29.8556 -84.1211 105° East 464 534 37,000  Level Jacksonville Center
Tue 05:24:52 AM 29.8233 -83.9794 138° Southeast 464 534 37,000  Level Jacksonville Center
Tue 05:25:52 AM 29.7303 -83.8828 152° Southeast 438 504 37,000 -50 Level Jacksonville Center
Tue 05:26:52 AM 29.6036 -83.8050 148° Southeast 445 512 36,900 -50 Descending Jacksonville Center
Tue 05:27:52 AM 29.4975 -83.7300 150° Southeast 452 520 36,900  Level Jacksonville Center
Tue 05:28:52 AM 29.3894 -83.6575 148° Southeast 452 520 36,900 50 Level Jacksonville Center
Tue 05:29:52 AM 29.2814 -83.5806 149° Southeast 452 520 37,000 50 Climbing Jacksonville Center
Tue 05:30:52 AM 29.1753 -83.5086 150° Southeast 452 520 37,000 -1,000 Level Jacksonville Center
Tue 05:31:52 AM 29.0628 -83.4342 150° Southeast 452 520 35,000 -2,500 Descending Jacksonville Center
Tue 05:32:52 AM 28.9506 -83.3600 149° Southeast 457 526 32,000 1,000 Descending Jacksonville Center
Tue 05:33:52 AM 28.8381 -83.2836 150° Southeast 469 540 37,000 -3,800 Climbing Jacksonville Center
Tue 05:34:52 AM 28.7233 -83.2075 148° Southeast 469 540 24,400 -7,600 Descending Jacksonville Center
Tue 05:35:52 AM 28.6150 -83.1314 149° Southeast 464 534 21,800 -1,950 Descending Jacksonville Center
Tue 05:36:52 AM 28.5108 -83.0603 154° Southeast 453 521 20,500 -964 Descending Jacksonville Center
Tue 05:37:44 AM 28.4333 -83.0167 150° Southeast 387 445 20,000 -254 Descending Tampa TRACON
Tue 05:38:50 AM 28.3333 -82.9500 139° Southeast 358 412 20,000 -1,333 Level Tampa TRACON
Tue 05:39:50 AM 28.2667 -82.8833 81° East 344 396 17,200 -2,750 Descending Tampa TRACON
Tue 05:40:50 AM 28.2833 -82.7667 90° East 342 394 14,500 -2,476 Descending Tampa TRACON
Tue 05:41:56 AM 28.2833 -82.6500 90° East 335 386 12,000 -2,409 Descending Tampa TRACON
Tue 05:43:02 AM 28.2833 -82.5333 77° East 322 371 9,200 -2,810 Descending Tampa TRACON
Tue 05:44:02 AM 28.3000 -82.4500 139° Southeast 311 358 6,100 -2,737 Descending Tampa TRACON
Tue 05:44:56 AM 28.2500 -82.4000 196° South 257 296 4,000 -1,632 Descending Tampa TRACON
Tue 05:45:56 AM 28.2000 -82.4167 249° West 210 242 3,000 -500 Descending Tampa TRACON
Tue 05:46:56 AM 28.1833 -82.4667 249° West 171 197 3,000  Level Tampa TRACON
Tue 05:47:56 AM 28.1667 -82.5167 204° Southwest 149 171 3,000 -100 Level Tampa TRACON
Tue 05:48:56 AM 28.1333 -82.5333 180° South 148 170 2,800 -500 Descending Tampa TRACON
Tue 05:49:56 AM 28.1000 -82.5333 180° South 147 169 2,000 -800 Descending Tampa TRACON

Login

Don't have an account? Register now (free) for customized features, flight alerts, and more!